sensor_id;sensor_type;location;lat;lon;timestamp;temperature;humidity
1455;DHT22;721;48.168;12.818;2023-08-24T00:01:13;24.00;28.00
1455;DHT22;721;48.168;12.818;2023-08-24T00:03:43;24.00;27.20
1455;DHT22;721;48.168;12.818;2023-08-24T00:06:11;23.90;28.00
1455;DHT22;721;48.168;12.818;2023-08-24T00:08:38;23.90;28.10
1455;DHT22;721;48.168;12.818;2023-08-24T00:11:05;23.90;28.30
1455;DHT22;721;48.168;12.818;2023-08-24T00:13:33;23.90;27.80
1455;DHT22;721;48.168;12.818;2023-08-24T00:16:01;23.90;27.70
1455;DHT22;721;48.168;12.818;2023-08-24T00:18:29;23.90;28.70
1455;DHT22;721;48.168;12.818;2023-08-24T00:20:56;23.80;29.70
1455;DHT22;721;48.168;12.818;2023-08-24T00:23:24;23.80;28.80
1455;DHT22;721;48.168;12.818;2023-08-24T00:25:51;23.70;29.00
1455;DHT22;721;48.168;12.818;2023-08-24T00:28:18;23.70;28.70
1455;DHT22;721;48.168;12.818;2023-08-24T00:30:45;23.70;28.70
1455;DHT22;721;48.168;12.818;2023-08-24T00:33:13;23.70;28.90
1455;DHT22;721;48.168;12.818;2023-08-24T00:35:40;23.60;29.10
1455;DHT22;721;48.168;12.818;2023-08-24T00:38:07;23.60;28.60
1455;DHT22;721;48.168;12.818;2023-08-24T00:40:33;23.60;28.60
1455;DHT22;721;48.168;12.818;2023-08-24T00:43:01;23.60;29.50
1455;DHT22;721;48.168;12.818;2023-08-24T00:45:28;23.60;28.60
1455;DHT22;721;48.168;12.818;2023-08-24T00:47:58;23.50;31.30
1455;DHT22;721;48.168;12.818;2023-08-24T00:50:26;23.40;27.20
1455;DHT22;721;48.168;12.818;2023-08-24T00:52:54;23.40;27.60
1455;DHT22;721;48.168;12.818;2023-08-24T00:55:21;23.30;28.20
1455;DHT22;721;48.168;12.818;2023-08-24T00:57:48;23.30;27.30
1455;DHT22;721;48.168;12.818;2023-08-24T01:00:16;23.30;27.10
1455;DHT22;721;48.168;12.818;2023-08-24T01:02:43;23.20;27.60
1455;DHT22;721;48.168;12.818;2023-08-24T01:05:10;23.10;28.30
1455;DHT22;721;48.168;12.818;2023-08-24T01:07:39;23.20;27.20
1455;DHT22;721;48.168;12.818;2023-08-24T01:10:08;23.30;28.40
1455;DHT22;721;48.168;12.818;2023-08-24T01:12:45;23.20;27.90
1455;DHT22;721;48.168;12.818;2023-08-24T01:15:19;23.10;30.10
1455;DHT22;721;48.168;12.818;2023-08-24T01:17:50;22.90;32.50
1455;DHT22;721;48.168;12.818;2023-08-24T01:20:19;22.90;30.70
1455;DHT22;721;48.168;12.818;2023-08-24T01:22:55;22.90;29.70
1455;DHT22;721;48.168;12.818;2023-08-24T01:25:31;22.80;30.00
1455;DHT22;721;48.168;12.818;2023-08-24T01:28:03;22.80;29.80
1455;DHT22;721;48.168;12.818;2023-08-24T01:30:34;22.80;30.60
1455;DHT22;721;48.168;12.818;2023-08-24T01:33:02;22.70;31.70
1455;DHT22;721;48.168;12.818;2023-08-24T01:35:30;22.80;29.60
1455;DHT22;721;48.168;12.818;2023-08-24T01:37:58;22.70;31.90
1455;DHT22;721;48.168;12.818;2023-08-24T01:40:42;22.70;30.00
1455;DHT22;721;48.168;12.818;2023-08-24T01:43:14;22.60;31.30
1455;DHT22;721;48.168;12.818;2023-08-24T01:45:42;22.60;34.10
1455;DHT22;721;48.168;12.818;2023-08-24T01:48:10;22.50;34.80
1455;DHT22;721;48.168;12.818;2023-08-24T01:50:38;22.50;36.00
1455;DHT22;721;48.168;12.818;2023-08-24T01:53:06;22.50;34.60
1455;DHT22;721;48.168;12.818;2023-08-24T01:55:33;22.50;35.70
1455;DHT22;721;48.168;12.818;2023-08-24T01:58:00;22.40;36.80
1455;DHT22;721;48.168;12.818;2023-08-24T02:00:28;22.40;36.80
1455;DHT22;721;48.168;12.818;2023-08-24T02:02:55;22.50;35.10
1455;DHT22;721;48.168;12.818;2023-08-24T02:05:21;22.50;35.00
1455;DHT22;721;48.168;12.818;2023-08-24T02:07:52;22.50;34.40
1455;DHT22;721;48.168;12.818;2023-08-24T02:10:20;22.50;35.10
1455;DHT22;721;48.168;12.818;2023-08-24T02:12:47;22.40;36.20
1455;DHT22;721;48.168;12.818;2023-08-24T02:15:13;22.50;35.40
1455;DHT22;721;48.168;12.818;2023-08-24T02:17:42;22.30;38.00
1455;DHT22;721;48.168;12.818;2023-08-24T02:20:10;22.20;38.20
1455;DHT22;721;48.168;12.818;2023-08-24T02:22:37;22.20;39.20
1455;DHT22;721;48.168;12.818;2023-08-24T02:25:05;22.20;37.10
1455;DHT22;721;48.168;12.818;2023-08-24T02:27:32;22.20;36.70
1455;DHT22;721;48.168;12.818;2023-08-24T02:29:59;22.20;37.70
1455;DHT22;721;48.168;12.818;2023-08-24T02:32:26;22.20;36.10
1455;DHT22;721;48.168;12.818;2023-08-24T02:34:54;22.30;37.90
1455;DHT22;721;48.168;12.818;2023-08-24T02:37:21;22.20;37.10
1455;DHT22;721;48.168;12.818;2023-08-24T02:39:48;22.30;37.20
1455;DHT22;721;48.168;12.818;2023-08-24T02:42:14;22.30;38.90
1455;DHT22;721;48.168;12.818;2023-08-24T02:44:41;22.30;36.10
1455;DHT22;721;48.168;12.818;2023-08-24T02:47:08;22.20;37.10
1455;DHT22;721;48.168;12.818;2023-08-24T02:49:35;22.40;37.30
1455;DHT22;721;48.168;12.818;2023-08-24T02:52:03;22.40;37.30
1455;DHT22;721;48.168;12.818;2023-08-24T02:54:30;22.40;37.60
1455;DHT22;721;48.168;12.818;2023-08-24T02:56:57;22.40;37.30
1455;DHT22;721;48.168;12.818;2023-08-24T02:59:24;22.50;35.40
1455;DHT22;721;48.168;12.818;2023-08-24T03:01:51;22.60;33.60
1455;DHT22;721;48.168;12.818;2023-08-24T03:04:19;22.60;36.30
1455;DHT22;721;48.168;12.818;2023-08-24T03:06:47;22.60;34.40
1455;DHT22;721;48.168;12.818;2023-08-24T03:09:15;22.50;37.30
1455;DHT22;721;48.168;12.818;2023-08-24T03:11:42;22.50;35.80
1455;DHT22;721;48.168;12.818;2023-08-24T03:14:09;22.50;37.00
1455;DHT22;721;48.168;12.818;2023-08-24T03:16:37;22.40;35.70
1455;DHT22;721;48.168;12.818;2023-08-24T03:19:05;22.50;34.60
1455;DHT22;721;48.168;12.818;2023-08-24T03:21:32;22.40;35.50
1455;DHT22;721;48.168;12.818;2023-08-24T03:23:58;22.30;36.80
1455;DHT22;721;48.168;12.818;2023-08-24T03:26:27;22.40;34.40
1455;DHT22;721;48.168;12.818;2023-08-24T03:28:54;22.30;35.90
1455;DHT22;721;48.168;12.818;2023-08-24T03:31:20;22.10;39.00
1455;DHT22;721;48.168;12.818;2023-08-24T03:33:47;22.20;36.60
1455;DHT22;721;48.168;12.818;2023-08-24T03:36:14;22.20;35.10
1455;DHT22;721;48.168;12.818;2023-08-24T03:38:41;22.20;34.20
1455;DHT22;721;48.168;12.818;2023-08-24T03:41:08;22.20;32.80
1455;DHT22;721;48.168;12.818;2023-08-24T03:43:36;22.20;33.10
1455;DHT22;721;48.168;12.818;2023-08-24T03:46:03;22.20;34.20
1455;DHT22;721;48.168;12.818;2023-08-24T03:48:31;22.20;35.60
1455;DHT22;721;48.168;12.818;2023-08-24T03:50:58;22.10;34.90
1455;DHT22;721;48.168;12.818;2023-08-24T03:53:25;22.00;35.70
1455;DHT22;721;48.168;12.818;2023-08-24T03:55:52;22.00;35.30
1455;DHT22;721;48.168;12.818;2023-08-24T03:58:19;22.00;34.70
1455;DHT22;721;48.168;12.818;2023-08-24T04:00:47;21.90;36.50
1455;DHT22;721;48.168;12.818;2023-08-24T04:03:14;21.80;36.70
1455;DHT22;721;48.168;12.818;2023-08-24T04:05:42;21.70;37.50
1455;DHT22;721;48.168;12.818;2023-08-24T04:08:09;21.70;36.60
1455;DHT22;721;48.168;12.818;2023-08-24T04:10:35;21.60;38.60
1455;DHT22;721;48.168;12.818;2023-08-24T04:13:03;21.60;37.70
1455;DHT22;721;48.168;12.818;2023-08-24T04:15:30;21.60;37.10
1455;DHT22;721;48.168;12.818;2023-08-24T04:17:58;21.60;37.10
1455;DHT22;721;48.168;12.818;2023-08-24T04:20:25;21.70;36.70
1455;DHT22;721;48.168;12.818;2023-08-24T04:22:51;21.60;38.10
1455;DHT22;721;48.168;12.818;2023-08-24T04:25:18;21.60;38.90
1455;DHT22;721;48.168;12.818;2023-08-24T04:27:45;21.60;38.90
1455;DHT22;721;48.168;12.818;2023-08-24T04:30:12;21.60;38.00
1455;DHT22;721;48.168;12.818;2023-08-24T04:32:40;21.50;41.80
1455;DHT22;721;48.168;12.818;2023-08-24T04:35:08;21.40;48.00
1455;DHT22;721;48.168;12.818;2023-08-24T04:37:36;21.30;49.80
1455;DHT22;721;48.168;12.818;2023-08-24T04:40:05;21.20;50.00
1455;DHT22;721;48.168;12.818;2023-08-24T04:42:32;21.20;49.00
1455;DHT22;721;48.168;12.818;2023-08-24T04:44:59;21.20;50.70
1455;DHT22;721;48.168;12.818;2023-08-24T04:47:26;21.20;51.30
1455;DHT22;721;48.168;12.818;2023-08-24T04:49:53;21.20;51.00
1455;DHT22;721;48.168;12.818;2023-08-24T04:52:21;21.20;52.40
1455;DHT22;721;48.168;12.818;2023-08-24T04:54:48;21.30;50.20
1455;DHT22;721;48.168;12.818;2023-08-24T04:57:16;21.30;50.20
1455;DHT22;721;48.168;12.818;2023-08-24T04:59:43;21.20;51.40
1455;DHT22;721;48.168;12.818;2023-08-24T05:02:10;21.30;52.20
1455;DHT22;721;48.168;12.818;2023-08-24T05:04:36;21.30;52.90
1455;DHT22;721;48.168;12.818;2023-08-24T05:07:03;21.40;51.60
1455;DHT22;721;48.168;12.818;2023-08-24T05:09:31;21.50;48.30
1455;DHT22;721;48.168;12.818;2023-08-24T05:11:58;21.50;49.20
1455;DHT22;721;48.168;12.818;2023-08-24T05:14:25;21.50;52.00
1455;DHT22;721;48.168;12.818;2023-08-24T05:16:52;21.50;52.20
1455;DHT22;721;48.168;12.818;2023-08-24T05:19:19;21.50;52.60
1455;DHT22;721;48.168;12.818;2023-08-24T05:21:46;21.60;50.80
1455;DHT22;721;48.168;12.818;2023-08-24T05:24:12;21.70;51.20
1455;DHT22;721;48.168;12.818;2023-08-24T05:26:41;21.70;52.30
1455;DHT22;721;48.168;12.818;2023-08-24T05:29:07;21.60;53.70
1455;DHT22;721;48.168;12.818;2023-08-24T05:31:34;21.70;52.90
1455;DHT22;721;48.168;12.818;2023-08-24T05:34:01;21.80;51.30
1455;DHT22;721;48.168;12.818;2023-08-24T05:36:28;21.90;50.80
1455;DHT22;721;48.168;12.818;2023-08-24T05:38:55;22.00;50.10
1455;DHT22;721;48.168;12.818;2023-08-24T05:41:22;22.10;48.00
1455;DHT22;721;48.168;12.818;2023-08-24T05:43:50;22.10;47.00
1455;DHT22;721;48.168;12.818;2023-08-24T05:46:18;22.20;47.10
1455;DHT22;721;48.168;12.818;2023-08-24T05:48:45;22.20;47.70
1455;DHT22;721;48.168;12.818;2023-08-24T05:51:13;22.30;47.20
1455;DHT22;721;48.168;12.818;2023-08-24T05:53:39;22.30;47.20
1455;DHT22;721;48.168;12.818;2023-08-24T05:56:07;22.40;46.70
1455;DHT22;721;48.168;12.818;2023-08-24T05:58:34;22.40;46.60
1455;DHT22;721;48.168;12.818;2023-08-24T06:01:02;22.50;46.00
1455;DHT22;721;48.168;12.818;2023-08-24T06:03:29;22.60;45.60
1455;DHT22;721;48.168;12.818;2023-08-24T06:06:02;22.60;46.40
1455;DHT22;721;48.168;12.818;2023-08-24T06:08:29;22.60;46.00
1455;DHT22;721;48.168;12.818;2023-08-24T06:10:57;22.80;45.60
1455;DHT22;721;48.168;12.818;2023-08-24T06:13:24;22.80;44.90
1455;DHT22;721;48.168;12.818;2023-08-24T06:15:51;23.00;43.60
1455;DHT22;721;48.168;12.818;2023-08-24T06:18:19;23.00;44.30
1455;DHT22;721;48.168;12.818;2023-08-24T06:20:46;23.20;41.90
1455;DHT22;721;48.168;12.818;2023-08-24T06:23:14;23.20;43.70
1455;DHT22;721;48.168;12.818;2023-08-24T06:25:41;23.40;40.30
1455;DHT22;721;48.168;12.818;2023-08-24T06:28:08;23.50;40.00
1455;DHT22;721;48.168;12.818;2023-08-24T06:30:37;23.50;40.90
1455;DHT22;721;48.168;12.818;2023-08-24T06:33:06;23.60;38.40
1455;DHT22;721;48.168;12.818;2023-08-24T06:35:34;23.80;37.40
1455;DHT22;721;48.168;12.818;2023-08-24T06:38:02;23.90;36.40
1455;DHT22;721;48.168;12.818;2023-08-24T06:40:30;23.90;36.00
1455;DHT22;721;48.168;12.818;2023-08-24T06:42:57;24.00;35.40
1455;DHT22;721;48.168;12.818;2023-08-24T06:45:24;24.20;34.00
1455;DHT22;721;48.168;12.818;2023-08-24T06:47:51;24.20;33.50
1455;DHT22;721;48.168;12.818;2023-08-24T06:50:18;24.30;33.30
1455;DHT22;721;48.168;12.818;2023-08-24T06:52:47;24.30;32.60
1455;DHT22;721;48.168;12.818;2023-08-24T06:55:15;24.30;31.20
1455;DHT22;721;48.168;12.818;2023-08-24T06:57:42;24.40;29.50
1455;DHT22;721;48.168;12.818;2023-08-24T07:00:09;24.50;29.60
1455;DHT22;721;48.168;12.818;2023-08-24T07:02:40;24.50;29.30
1455;DHT22;721;48.168;12.818;2023-08-24T07:05:07;24.60;29.40
1455;DHT22;721;48.168;12.818;2023-08-24T07:07:34;24.70;29.50
1455;DHT22;721;48.168;12.818;2023-08-24T07:10:03;24.70;30.20
1455;DHT22;721;48.168;12.818;2023-08-24T07:12:31;24.80;29.50
1455;DHT22;721;48.168;12.818;2023-08-24T07:14:57;24.90;30.00
1455;DHT22;721;48.168;12.818;2023-08-24T07:17:24;25.00;29.70
1455;DHT22;721;48.168;12.818;2023-08-24T07:19:51;25.10;27.90
1455;DHT22;721;48.168;12.818;2023-08-24T07:22:18;25.30;27.40
1455;DHT22;721;48.168;12.818;2023-08-24T07:24:45;25.30;26.10
1455;DHT22;721;48.168;12.818;2023-08-24T07:27:14;25.50;25.10
1455;DHT22;721;48.168;12.818;2023-08-24T07:29:42;25.60;24.70
1455;DHT22;721;48.168;12.818;2023-08-24T07:32:09;25.60;23.50
1455;DHT22;721;48.168;12.818;2023-08-24T07:34:36;25.70;23.50
1455;DHT22;721;48.168;12.818;2023-08-24T07:37:03;25.70;22.80
1455;DHT22;721;48.168;12.818;2023-08-24T07:39:30;25.80;23.50
1455;DHT22;721;48.168;12.818;2023-08-24T07:41:56;26.00;24.30
1455;DHT22;721;48.168;12.818;2023-08-24T07:44:25;26.10;22.90
1455;DHT22;721;48.168;12.818;2023-08-24T07:46:51;26.20;22.10
1455;DHT22;721;48.168;12.818;2023-08-24T07:49:18;26.30;21.30
1455;DHT22;721;48.168;12.818;2023-08-24T07:51:45;26.40;19.90
1455;DHT22;721;48.168;12.818;2023-08-24T07:54:13;26.50;20.10
1455;DHT22;721;48.168;12.818;2023-08-24T07:56:42;26.60;19.20
1455;DHT22;721;48.168;12.818;2023-08-24T07:59:08;26.60;18.70
1455;DHT22;721;48.168;12.818;2023-08-24T08:01:37;26.80;16.90
1455;DHT22;721;48.168;12.818;2023-08-24T08:04:04;26.80;15.50
1455;DHT22;721;48.168;12.818;2023-08-24T08:06:31;26.90;17.20
1455;DHT22;721;48.168;12.818;2023-08-24T08:08:58;27.00;15.90
1455;DHT22;721;48.168;12.818;2023-08-24T08:11:26;27.10;14.80
1455;DHT22;721;48.168;12.818;2023-08-24T08:13:52;27.10;15.70
1455;DHT22;721;48.168;12.818;2023-08-24T08:16:19;27.10;14.70
1455;DHT22;721;48.168;12.818;2023-08-24T08:18:48;27.20;14.30
1455;DHT22;721;48.168;12.818;2023-08-24T08:21:15;27.30;15.00
1455;DHT22;721;48.168;12.818;2023-08-24T08:23:45;27.40;14.40
1455;DHT22;721;48.168;12.818;2023-08-24T08:26:12;27.50;15.50
1455;DHT22;721;48.168;12.818;2023-08-24T08:28:40;27.60;11.70
1455;DHT22;721;48.168;12.818;2023-08-24T08:31:07;27.80;12.30
1455;DHT22;721;48.168;12.818;2023-08-24T08:33:34;27.80;13.00
1455;DHT22;721;48.168;12.818;2023-08-24T08:36:02;27.90;13.00
1455;DHT22;721;48.168;12.818;2023-08-24T08:38:29;27.90;13.40
1455;DHT22;721;48.168;12.818;2023-08-24T08:40:56;28.00;9.80
1455;DHT22;721;48.168;12.818;2023-08-24T08:43:25;28.00;10.20
1455;DHT22;721;48.168;12.818;2023-08-24T08:45:54;28.20;10.50
1455;DHT22;721;48.168;12.818;2023-08-24T08:48:22;28.20;9.30
1455;DHT22;721;48.168;12.818;2023-08-24T08:50:50;28.20;10.20
1455;DHT22;721;48.168;12.818;2023-08-24T08:53:22;28.30;12.70
1455;DHT22;721;48.168;12.818;2023-08-24T08:55:51;28.30;11.10
1455;DHT22;721;48.168;12.818;2023-08-24T08:58:19;28.30;12.70
1455;DHT22;721;48.168;12.818;2023-08-24T09:00:47;28.40;11.80
1455;DHT22;721;48.168;12.818;2023-08-24T09:03:17;28.40;10.80
1455;DHT22;721;48.168;12.818;2023-08-24T09:05:45;28.40;10.50
1455;DHT22;721;48.168;12.818;2023-08-24T09:08:13;28.50;12.50
1455;DHT22;721;48.168;12.818;2023-08-24T09:10:42;28.50;10.70
1455;DHT22;721;48.168;12.818;2023-08-24T09:13:09;28.50;10.30
1455;DHT22;721;48.168;12.818;2023-08-24T09:15:36;28.50;11.00
1455;DHT22;721;48.168;12.818;2023-08-24T09:18:03;28.50;9.90
1455;DHT22;721;48.168;12.818;2023-08-24T09:20:30;28.50;11.30
1455;DHT22;721;48.168;12.818;2023-08-24T09:22:57;28.60;12.90
1455;DHT22;721;48.168;12.818;2023-08-24T09:25:24;28.60;11.20
1455;DHT22;721;48.168;12.818;2023-08-24T09:28:03;28.70;8.40
1455;DHT22;721;48.168;12.818;2023-08-24T09:30:31;28.90;11.70
1455;DHT22;721;48.168;12.818;2023-08-24T09:33:02;28.90;9.00
1455;DHT22;721;48.168;12.818;2023-08-24T09:35:35;28.90;8.30
1455;DHT22;721;48.168;12.818;2023-08-24T09:38:16;29.00;11.30
1455;DHT22;721;48.168;12.818;2023-08-24T09:40:45;29.10;8.50
1455;DHT22;721;48.168;12.818;2023-08-24T09:43:14;29.20;9.30
1455;DHT22;721;48.168;12.818;2023-08-24T09:45:48;29.30;9.30
1455;DHT22;721;48.168;12.818;2023-08-24T09:48:15;29.40;10.00
1455;DHT22;721;48.168;12.818;2023-08-24T09:50:42;29.50;9.60
1455;DHT22;721;48.168;12.818;2023-08-24T09:53:17;29.60;2.50
1455;DHT22;721;48.168;12.818;2023-08-24T09:55:53;29.70;3.50
1455;DHT22;721;48.168;12.818;2023-08-24T09:58:23;29.70;6.90
1455;DHT22;721;48.168;12.818;2023-08-24T10:00:51;29.70;2.70
1455;DHT22;721;48.168;12.818;2023-08-24T10:03:19;29.90;1.60
1455;DHT22;721;48.168;12.818;2023-08-24T10:05:48;30.00;2.10
1455;DHT22;721;48.168;12.818;2023-08-24T10:08:21;30.10;4.70
1455;DHT22;721;48.168;12.818;2023-08-24T10:10:53;30.20;2.00
1455;DHT22;721;48.168;12.818;2023-08-24T10:13:26;30.30;2.70
1455;DHT22;721;48.168;12.818;2023-08-24T10:15:56;30.40;1.00
1455;DHT22;721;48.168;12.818;2023-08-24T10:18:24;30.40;1.30
1455;DHT22;721;48.168;12.818;2023-08-24T10:20:52;30.50;1.00
1455;DHT22;721;48.168;12.818;2023-08-24T10:23:19;30.60;1.00
1455;DHT22;721;48.168;12.818;2023-08-24T10:25:46;30.60;1.00
1455;DHT22;721;48.168;12.818;2023-08-24T10:28:14;30.60;1.00
1455;DHT22;721;48.168;12.818;2023-08-24T10:30:44;30.60;1.00
1455;DHT22;721;48.168;12.818;2023-08-24T10:33:11;30.60;1.00
1455;DHT22;721;48.168;12.818;2023-08-24T10:35:39;30.60;1.00
1455;DHT22;721;48.168;12.818;2023-08-24T10:38:06;30.60;1.00
1455;DHT22;721;48.168;12.818;2023-08-24T10:40:34;30.70;1.00
1455;DHT22;721;48.168;12.818;2023-08-24T10:43:04;30.70;1.00
1455;DHT22;721;48.168;12.818;2023-08-24T10:45:55;30.80;1.00
1455;DHT22;721;48.168;12.818;2023-08-24T10:48:22;30.80;1.00
1455;DHT22;721;48.168;12.818;2023-08-24T10:51:23;30.90;1.00
1455;DHT22;721;48.168;12.818;2023-08-24T10:53:53;31.00;1.00
1455;DHT22;721;48.168;12.818;2023-08-24T10:56:21;31.10;1.00
1455;DHT22;721;48.168;12.818;2023-08-24T10:59:12;31.30;1.00
1455;DHT22;721;48.168;12.818;2023-08-24T11:01:41;31.30;1.00
1455;DHT22;721;48.168;12.818;2023-08-24T11:04:08;31.20;1.00
1455;DHT22;721;48.168;12.818;2023-08-24T11:06:51;31.30;1.00
1455;DHT22;721;48.168;12.818;2023-08-24T11:09:18;31.30;1.00
1455;DHT22;721;48.168;12.818;2023-08-24T11:11:55;31.40;1.00
1455;DHT22;721;48.168;12.818;2023-08-24T11:14:22;31.50;1.00
1455;DHT22;721;48.168;12.818;2023-08-24T11:16:53;31.60;1.00
1455;DHT22;721;48.168;12.818;2023-08-24T11:19:23;31.60;1.00
1455;DHT22;721;48.168;12.818;2023-08-24T11:21:51;31.70;1.00
1455;DHT22;721;48.168;12.818;2023-08-24T11:24:18;31.90;1.00
1455;DHT22;721;48.168;12.818;2023-08-24T11:26:47;31.90;1.00
1455;DHT22;721;48.168;12.818;2023-08-24T11:29:14;31.80;1.00
1455;DHT22;721;48.168;12.818;2023-08-24T11:31:41;31.90;1.00
1455;DHT22;721;48.168;12.818;2023-08-24T11:34:10;31.70;1.00
1455;DHT22;721;48.168;12.818;2023-08-24T11:36:46;31.90;1.00
1455;DHT22;721;48.168;12.818;2023-08-24T11:39:17;31.90;1.00
1455;DHT22;721;48.168;12.818;2023-08-24T11:41:45;32.10;1.00
1455;DHT22;721;48.168;12.818;2023-08-24T11:44:22;32.00;1.00
1455;DHT22;721;48.168;12.818;2023-08-24T11:46:49;32.00;1.00
1455;DHT22;721;48.168;12.818;2023-08-24T11:49:17;32.10;1.00
1455;DHT22;721;48.168;12.818;2023-08-24T11:51:44;32.20;1.00
1455;DHT22;721;48.168;12.818;2023-08-24T11:54:11;32.40;1.00
1455;DHT22;721;48.168;12.818;2023-08-24T11:56:41;32.50;1.00
1455;DHT22;721;48.168;12.818;2023-08-24T11:59:11;32.60;1.00
1455;DHT22;721;48.168;12.818;2023-08-24T12:01:39;32.70;1.00
1455;DHT22;721;48.168;12.818;2023-08-24T12:04:06;32.70;1.00
1455;DHT22;721;48.168;12.818;2023-08-24T12:06:35;32.80;1.00
1455;DHT22;721;48.168;12.818;2023-08-24T12:09:04;32.70;1.00
1455;DHT22;721;48.168;12.818;2023-08-24T12:11:35;32.90;1.00
1455;DHT22;721;48.168;12.818;2023-08-24T12:14:02;32.90;1.00
1455;DHT22;721;48.168;12.818;2023-08-24T12:16:32;33.00;1.00
1455;DHT22;721;48.168;12.818;2023-08-24T12:19:00;33.10;1.00
1455;DHT22;721;48.168;12.818;2023-08-24T12:21:28;33.40;1.00
1455;DHT22;721;48.168;12.818;2023-08-24T12:23:58;33.40;1.00
1455;DHT22;721;48.168;12.818;2023-08-24T12:26:25;33.40;1.00
1455;DHT22;721;48.168;12.818;2023-08-24T12:28:53;33.30;1.00
1455;DHT22;721;48.168;12.818;2023-08-24T12:31:20;33.50;1.00
1455;DHT22;721;48.168;12.818;2023-08-24T12:33:59;33.50;1.00
1455;DHT22;721;48.168;12.818;2023-08-24T12:36:26;33.60;1.00
1455;DHT22;721;48.168;12.818;2023-08-24T12:38:53;33.60;1.00
1455;DHT22;721;48.168;12.818;2023-08-24T12:41:22;33.70;1.00
1455;DHT22;721;48.168;12.818;2023-08-24T12:43:49;33.70;1.00
1455;DHT22;721;48.168;12.818;2023-08-24T12:46:16;33.80;1.00
1455;DHT22;721;48.168;12.818;2023-08-24T12:48:43;33.90;1.00
1455;DHT22;721;48.168;12.818;2023-08-24T12:51:10;33.60;1.00
1455;DHT22;721;48.168;12.818;2023-08-24T12:53:37;33.70;1.00
1455;DHT22;721;48.168;12.818;2023-08-24T12:56:04;33.80;1.00
1455;DHT22;721;48.168;12.818;2023-08-24T12:58:33;33.90;1.00
1455;DHT22;721;48.168;12.818;2023-08-24T13:01:00;34.00;1.00
1455;DHT22;721;48.168;12.818;2023-08-24T13:03:26;34.40;1.00
1455;DHT22;721;48.168;12.818;2023-08-24T13:05:53;34.40;1.00
1455;DHT22;721;48.168;12.818;2023-08-24T13:08:20;34.20;1.00
1455;DHT22;721;48.168;12.818;2023-08-24T13:10:47;34.20;1.00
1455;DHT22;721;48.168;12.818;2023-08-24T13:13:14;34.30;1.00
1455;DHT22;721;48.168;12.818;2023-08-24T13:15:42;34.30;1.00
1455;DHT22;721;48.168;12.818;2023-08-24T13:18:09;34.40;1.00
1455;DHT22;721;48.168;12.818;2023-08-24T13:20:36;34.70;1.00
1455;DHT22;721;48.168;12.818;2023-08-24T13:23:03;35.10;1.00
1455;DHT22;721;48.168;12.818;2023-08-24T13:25:30;35.00;1.00
1455;DHT22;721;48.168;12.818;2023-08-24T13:27:57;35.00;1.00
1455;DHT22;721;48.168;12.818;2023-08-24T13:30:24;35.00;1.00
1455;DHT22;721;48.168;12.818;2023-08-24T13:32:52;35.10;1.00
1455;DHT22;721;48.168;12.818;2023-08-24T13:35:19;35.20;1.00
1455;DHT22;721;48.168;12.818;2023-08-24T13:37:47;35.40;1.00
1455;DHT22;721;48.168;12.818;2023-08-24T13:40:14;35.50;1.00
1455;DHT22;721;48.168;12.818;2023-08-24T13:42:40;35.40;1.00
1455;DHT22;721;48.168;12.818;2023-08-24T13:45:08;35.30;1.00
1455;DHT22;721;48.168;12.818;2023-08-24T13:47:35;35.40;1.00
1455;DHT22;721;48.168;12.818;2023-08-24T13:50:03;35.40;1.00
1455;DHT22;721;48.168;12.818;2023-08-24T13:52:30;35.60;1.00
1455;DHT22;721;48.168;12.818;2023-08-24T13:54:57;35.40;1.00
1455;DHT22;721;48.168;12.818;2023-08-24T13:57:24;35.30;1.00
1455;DHT22;721;48.168;12.818;2023-08-24T13:59:51;35.20;1.00
1455;DHT22;721;48.168;12.818;2023-08-24T14:02:18;35.30;1.00
1455;DHT22;721;48.168;12.818;2023-08-24T14:04:44;35.40;1.00
1455;DHT22;721;48.168;12.818;2023-08-24T14:07:13;35.60;1.00
1455;DHT22;721;48.168;12.818;2023-08-24T14:09:40;35.90;1.00
1455;DHT22;721;48.168;12.818;2023-08-24T14:12:07;36.10;1.00
1455;DHT22;721;48.168;12.818;2023-08-24T14:14:33;35.90;1.00
1455;DHT22;721;48.168;12.818;2023-08-24T14:17:00;36.00;1.00
1455;DHT22;721;48.168;12.818;2023-08-24T14:19:27;35.90;1.00
1455;DHT22;721;48.168;12.818;2023-08-24T14:21:54;35.80;1.00
1455;DHT22;721;48.168;12.818;2023-08-24T14:24:22;35.90;1.00
1455;DHT22;721;48.168;12.818;2023-08-24T14:26:49;36.00;1.00
1455;DHT22;721;48.168;12.818;2023-08-24T14:29:16;36.00;1.00
1455;DHT22;721;48.168;12.818;2023-08-24T14:31:43;36.20;1.00
1455;DHT22;721;48.168;12.818;2023-08-24T14:34:09;36.20;1.00
1455;DHT22;721;48.168;12.818;2023-08-24T14:36:36;36.10;1.00
1455;DHT22;721;48.168;12.818;2023-08-24T14:39:03;36.20;1.00
1455;DHT22;721;48.168;12.818;2023-08-24T14:41:31;36.30;1.00
1455;DHT22;721;48.168;12.818;2023-08-24T14:43:58;36.40;1.00
1455;DHT22;721;48.168;12.818;2023-08-24T14:46:25;36.20;1.00
1455;DHT22;721;48.168;12.818;2023-08-24T14:48:51;36.20;1.00
1455;DHT22;721;48.168;12.818;2023-08-24T14:51:18;36.50;1.00
1455;DHT22;721;48.168;12.818;2023-08-24T14:53:45;36.50;1.00
1455;DHT22;721;48.168;12.818;2023-08-24T14:56:12;36.60;1.00
1455;DHT22;721;48.168;12.818;2023-08-24T14:58:40;36.80;1.00
1455;DHT22;721;48.168;12.818;2023-08-24T15:01:07;36.60;1.00
1455;DHT22;721;48.168;12.818;2023-08-24T15:06:03;36.20;1.00
1455;DHT22;721;48.168;12.818;2023-08-24T15:08:30;36.20;1.00
1455;DHT22;721;48.168;12.818;2023-08-24T15:10:59;36.20;1.00
1455;DHT22;721;48.168;12.818;2023-08-24T15:13:27;36.10;1.00
1455;DHT22;721;48.168;12.818;2023-08-24T15:15:57;36.00;1.00
1455;DHT22;721;48.168;12.818;2023-08-24T15:18:26;35.90;1.00
1455;DHT22;721;48.168;12.818;2023-08-24T15:20:53;36.10;1.00
1455;DHT22;721;48.168;12.818;2023-08-24T15:23:21;36.40;1.00
1455;DHT22;721;48.168;12.818;2023-08-24T15:25:48;36.20;1.00
1455;DHT22;721;48.168;12.818;2023-08-24T15:28:15;36.20;1.00
1455;DHT22;721;48.168;12.818;2023-08-24T15:30:42;36.20;1.00
1455;DHT22;721;48.168;12.818;2023-08-24T15:33:10;36.40;1.00
1455;DHT22;721;48.168;12.818;2023-08-24T15:35:37;36.50;1.00
1455;DHT22;721;48.168;12.818;2023-08-24T15:38:05;36.10;1.00
1455;DHT22;721;48.168;12.818;2023-08-24T15:40:32;36.10;1.00
1455;DHT22;721;48.168;12.818;2023-08-24T15:43:00;36.00;1.00
1455;DHT22;721;48.168;12.818;2023-08-24T15:45:27;35.60;1.00
1455;DHT22;721;48.168;12.818;2023-08-24T15:47:55;35.60;1.00
1455;DHT22;721;48.168;12.818;2023-08-24T15:50:24;35.50;1.00
1455;DHT22;721;48.168;12.818;2023-08-24T15:52:51;35.20;1.00
1455;DHT22;721;48.168;12.818;2023-08-24T15:55:23;35.00;1.00
1455;DHT22;721;48.168;12.818;2023-08-24T15:57:50;34.70;1.00
1455;DHT22;721;48.168;12.818;2023-08-24T16:00:17;34.40;1.00
1455;DHT22;721;48.168;12.818;2023-08-24T16:02:44;34.20;1.00
1455;DHT22;721;48.168;12.818;2023-08-24T16:05:11;34.20;1.00
1455;DHT22;721;48.168;12.818;2023-08-24T16:07:39;34.30;1.00
1455;DHT22;721;48.168;12.818;2023-08-24T16:10:07;34.30;1.00
1455;DHT22;721;48.168;12.818;2023-08-24T16:12:34;34.40;1.00
1455;DHT22;721;48.168;12.818;2023-08-24T16:15:01;34.50;1.00
1455;DHT22;721;48.168;12.818;2023-08-24T16:17:28;34.70;1.00